Time;durP1;ratioP1;P1;durP2;ratioP2;P2;SDS_P1;SDS_P2;PMS_P1;PMS_P2;Temp;Humidity;BMP_temperature;BMP_pressure;BME280_temperature;BME280_humidity;BME280_pressure;Samples;Min_cycle;Max_cycle;Signal;HPM_P1;HPM_P2
2021/06/18 00:01:43;;;;;;;9.45;5.72;;;;;;;18.19;73.20;100185.59;5087478;28;20139;-24
2021/06/18 00:04:08;;;;;;;11.80;5.78;;;;;;;17.40;75.60;100190.91;5086843;28;20139;-24
2021/06/18 00:06:34;;;;;;;9.75;6.30;;;;;;;17.22;76.75;100192.16;5087113;28;20107;-24
2021/06/18 00:09:01;;;;;;;9.50;6.35;;;;;;;17.27;76.41;100186.78;5087453;28;20032;-24
2021/06/18 00:11:26;;;;;;;10.73;6.38;;;;;;;17.44;75.63;100192.00;5087155;28;20040;-24
2021/06/18 00:13:52;;;;;;;8.95;6.35;;;;;;;17.53;75.87;100195.03;5086893;28;20032;-23
2021/06/18 00:16:17;;;;;;;11.07;6.20;;;;;;;17.45;75.77;100152.41;5086691;28;20411;-24
2021/06/18 00:18:43;;;;;;;11.57;6.28;;;;;;;18.13;73.00;100181.28;5086518;28;20125;-24
2021/06/18 00:21:08;;;;;;;14.85;6.82;;;;;;;18.17;72.99;100179.66;5086577;28;20035;-24
2021/06/18 00:23:34;;;;;;;11.38;6.18;;;;;;;18.06;72.94;100179.63;5088208;28;20024;-24
2021/06/18 00:26:00;;;;;;;11.63;6.15;;;;;;;17.97;72.79;100156.94;5090966;28;20042;-24
2021/06/18 00:28:25;;;;;;;8.45;6.40;;;;;;;17.88;73.09;100153.13;5090639;28;20032;-24
2021/06/18 00:30:51;;;;;;;11.18;7.10;;;;;;;17.86;73.48;100168.78;5090550;28;20452;-24
2021/06/18 00:33:16;;;;;;;10.43;6.40;;;;;;;17.67;74.41;100158.44;5090588;28;20492;-24
2021/06/18 00:35:42;;;;;;;9.18;6.18;;;;;;;17.88;74.02;100155.84;5090953;28;20042;-23
2021/06/18 00:38:08;;;;;;;13.48;6.88;;;;;;;17.92;73.60;100159.63;5090709;28;20039;-24
2021/06/18 00:40:33;;;;;;;11.82;7.32;;;;;;;17.95;73.43;100147.47;5090714;28;20099;-24
2021/06/18 00:42:59;;;;;;;13.82;6.90;;;;;;;17.81;73.07;100152.53;5090689;28;20016;-23
2021/06/18 00:45:25;;;;;;;10.40;6.57;;;;;;;17.81;73.68;100158.72;5090549;28;20036;-23
2021/06/18 00:47:53;;;;;;;11.15;7.55;;;;;;;18.06;73.37;100146.41;5090155;28;20032;-23
2021/06/18 00:50:19;;;;;;;10.82;6.68;;;;;;;17.86;73.64;100152.59;5072036;28;20036;-24
2021/06/18 00:52:44;;;;;;;10.07;7.55;;;;;;;18.04;72.56;100135.91;5072259;28;20751;-24
2021/06/18 00:55:10;;;;;;;13.38;7.78;;;;;;;18.26;71.76;100148.34;5055426;28;20784;-24
2021/06/18 00:57:36;;;;;;;12.05;7.30;;;;;;;18.25;71.79;100150.25;5090319;28;20081;-24
2021/06/18 01:00:06;;;;;;;12.23;7.70;;;;;;;18.07;72.48;100146.16;5089717;28;20039;-24
2021/06/18 01:02:31;;;;;;;15.10;7.75;;;;;;;18.10;72.04;100141.31;5090282;28;20030;-24
2021/06/18 01:04:57;;;;;;;12.30;7.70;;;;;;;18.03;72.17;100131.59;5090182;28;20040;-24
2021/06/18 01:07:34;;;;;;;11.35;7.63;;;;;;;17.74;73.15;100125.81;5055277;28;20028;-23
2021/06/18 01:10:31;;;;;;;11.57;6.72;;;;;;;17.60;74.46;100130.88;5072923;28;20028;-24
2021/06/18 01:13:23;;;;;;;9.05;6.40;;;;;;;17.17;75.98;100111.28;5089955;28;20400;-24
2021/06/18 01:16:12;;;;;;;14.32;6.95;;;;;;;17.00;77.54;100126.78;5089956;28;20036;-23
2021/06/18 01:19:05;;;;;;;9.80;6.65;;;;;;;17.04;77.06;100103.66;5055542;28;20119;-23
2021/06/18 01:21:36;;;;;;;12.07;6.85;;;;;;;17.25;76.96;100136.94;5090214;28;20840;-24
2021/06/18 01:24:14;;;;;;;18.92;10.20;;;;;;;17.61;75.65;100137.09;5089696;28;20181;-24
2021/06/18 01:27:00;;;;;;;24.33;13.05;;;;;;;17.46;75.90;100129.75;5089648;28;20031;-24
2021/06/18 01:29:26;;;;;;;14.30;8.82;;;;;;;17.80;74.66;100145.53;5071522;28;20031;-24
2021/06/18 01:31:52;;;;;;;13.23;7.40;;;;;;;17.71;75.25;100141.72;5055094;28;20031;-23
2021/06/18 01:34:21;;;;;;;13.65;7.57;;;;;;;17.64;75.20;100137.38;5070922;28;20060;-24
2021/06/18 01:36:50;;;;;;;11.75;7.00;;;;;;;17.24;76.92;100135.28;5070805;28;20028;-23
2021/06/18 01:39:16;;;;;;;12.57;7.57;;;;;;;17.12;77.95;100148.16;5071514;28;20028;-24
2021/06/18 01:41:42;;;;;;;11.23;7.55;;;;;;;17.44;76.37;100131.88;5071223;28;20039;-24
2021/06/18 01:44:07;;;;;;;10.10;6.97;;;;;;;17.77;75.26;100154.13;5071305;28;20028;-23
2021/06/18 01:46:35;;;;;;;13.23;6.78;;;;;;;17.99;74.05;100149.38;5054624;28;20028;-23
2021/06/18 01:49:05;;;;;;;12.70;6.40;;;;;;;17.89;74.11;100149.34;5054745;28;20103;-24
2021/06/18 01:51:30;;;;;;;22.17;11.02;;;;;;;17.63;73.85;100134.94;5070892;28;20040;-24
2021/06/18 01:53:57;;;;;;;16.17;9.45;;;;;;;17.39;75.76;100145.38;5071104;28;20592;-24
2021/06/18 01:56:22;;;;;;;11.88;7.57;;;;;;;17.38;76.15;100144.53;5070882;28;20556;-24
2021/06/18 01:58:49;;;;;;;11.07;7.55;;;;;;;17.18;76.79;100139.88;5071206;28;20055;-24
2021/06/18 02:01:15;;;;;;;10.32;7.13;;;;;;;17.07;78.06;100148.94;5070931;28;20101;-24
2021/06/18 02:03:42;;;;;;;10.55;7.20;;;;;;;17.07;78.03;100154.34;5070879;28;20440;-24
2021/06/18 02:06:07;;;;;;;12.35;7.25;;;;;;;16.83;79.00;100135.03;5053998;28;20542;-24
2021/06/18 02:08:33;;;;;;;13.55;8.30;;;;;;;16.86;79.70;100143.41;5054485;28;20251;-24
2021/06/18 02:10:58;;;;;;;13.52;8.23;;;;;;;16.61;80.83;100153.94;5070073;28;20133;-23
2021/06/18 02:13:27;;;;;;;13.20;8.88;;;;;;;16.77;79.81;100139.53;5088849;28;20388;-24
2021/06/18 02:15:53;;;;;;;13.73;8.10;;;;;;;16.78;79.14;100130.41;5070764;28;20401;-23
2021/06/18 02:18:20;;;;;;;15.85;7.78;;;;;;;16.77;79.93;100144.91;5070238;28;20565;-24
2021/06/18 02:20:46;;;;;;;14.50;8.77;;;;;;;16.92;79.41;100156.91;5088458;28;20032;-24
2021/06/18 02:23:12;;;;;;;12.60;8.38;;;;;;;17.10;78.40;100158.38;5088598;28;20423;-24
2021/06/18 02:25:38;;;;;;;15.18;9.05;;;;;;;17.05;78.52;100143.81;5053811;28;20027;-24
2021/06/18 02:28:04;;;;;;;14.95;9.60;;;;;;;16.96;79.01;100133.78;5088479;28;20050;-24
2021/06/18 02:30:29;;;;;;;15.88;9.73;;;;;;;17.05;78.98;100156.47;5070678;28;20862;-24
2021/06/18 02:32:56;;;;;;;12.27;9.40;;;;;;;17.21;78.21;100155.50;5070462;28;20070;-23
2021/06/18 02:35:23;;;;;;;14.68;9.75;;;;;;;16.93;79.37;100147.78;5054047;28;20024;-24
2021/06/18 02:37:48;;;;;;;14.73;9.77;;;;;;;16.90;79.13;100138.34;5088572;28;20028;-23
2021/06/18 02:40:14;;;;;;;16.60;9.88;;;;;;;17.09;79.09;100151.38;5087816;28;20035;-23
2021/06/18 02:42:39;;;;;;;12.50;9.25;;;;;;;17.31;78.18;100156.63;5088512;28;20103;-23
2021/06/18 02:45:05;;;;;;;16.80;9.13;;;;;;;17.33;77.86;100151.81;5088272;28;20156;-24
2021/06/18 02:47:37;;;;;;;14.55;9.75;;;;;;;17.21;77.78;100138.53;5088021;28;20028;-23
2021/06/18 02:50:17;;;;;;;18.73;9.02;;;;;;;17.47;77.05;100164.53;5088144;28;20098;-24
2021/06/18 02:53:03;;;;;;;17.48;9.50;;;;;;;17.32;78.91;100172.53;5088376;28;20028;-23
2021/06/18 02:55:33;;;;;;;14.75;9.43;;;;;;;17.29;77.83;100164.97;5053945;28;20038;-23
2021/06/18 02:58:05;;;;;;;14.48;9.82;;;;;;;17.30;77.55;100155.00;5053723;28;20115;-24
2021/06/18 03:00:31;;;;;;;21.95;13.02;;;;;;;17.72;76.84;100170.31;5070478;28;20031;-23
2021/06/18 03:02:58;;;;;;;21.75;13.02;;;;;;;17.84;75.57;100166.34;5053281;28;20028;-23
2021/06/18 03:05:24;;;;;;;20.37;12.20;;;;;;;17.79;75.73;100160.09;5053404;28;20119;-23
2021/06/18 03:08:00;;;;;;;13.02;9.38;;;;;;;17.87;75.99;100157.69;5087872;28;20403;-23
2021/06/18 03:10:27;;;;;;;17.75;9.48;;;;;;;18.07;74.66;100170.44;5087844;28;20028;-24
2021/06/18 03:13:03;;;;;;;23.48;11.27;;;;;;;17.89;74.56;100137.75;5069571;28;20031;-24
2021/06/18 03:15:31;;;;;;;18.55;11.05;;;;;;;18.09;74.55;100154.00;5069693;28;20024;-24
2021/06/18 03:17:57;;;;;;;;;;;;;;;18.03;75.32;100155.06;5070112;28;20136;-23
2021/06/18 03:20:22;;;;;;;16.75;9.95;;;;;;;18.04;74.04;100149.41;5069239;28;19981;-23
2021/06/18 03:22:49;;;;;;;18.05;9.75;;;;;;;17.85;74.66;100143.66;5052886;28;20031;-23
2021/06/18 03:25:15;;;;;;;14.18;8.88;;;;;;;17.76;75.12;100149.84;5069631;28;20151;-23
2021/06/18 03:27:40;;;;;;;14.35;9.90;;;;;;;18.26;73.64;100153.75;5069534;28;20060;-24
2021/06/18 03:30:06;;;;;;;24.67;13.38;;;;;;;18.27;72.92;100153.50;5052416;28;20028;-23
2021/06/18 03:32:33;;;;;;;18.05;10.95;;;;;;;17.94;74.50;100149.38;5087461;28;20027;-24
2021/06/18 03:34:59;;;;;;;22.10;12.20;;;;;;;17.95;74.58;100151.00;5069474;28;20043;-24
2021/06/18 03:37:24;;;;;;;17.88;11.43;;;;;;;18.28;74.09;100162.41;5069385;28;20078;-24
2021/06/18 03:39:50;;;;;;;19.35;11.05;;;;;;;18.30;73.33;100154.84;5069467;28;20031;-24
2021/06/18 03:42:15;;;;;;;21.88;12.40;;;;;;;18.44;72.54;100165.94;5087279;28;20031;-24
2021/06/18 03:44:41;;;;;;;20.35;11.10;;;;;;;18.46;72.51;100144.88;5069461;28;20031;-23
2021/06/18 03:47:07;;;;;;;18.30;9.60;;;;;;;18.73;72.13;100165.41;5069555;28;20036;-23
2021/06/18 03:49:32;;;;;;;23.60;14.30;;;;;;;18.62;72.17;100157.28;5087249;28;20067;-24
2021/06/18 03:51:58;;;;;;;24.67;14.07;;;;;;;18.69;71.76;100170.53;5052443;28;20028;-23
2021/06/18 03:54:23;;;;;;;16.02;11.20;;;;;;;18.48;72.80;100169.72;5068785;28;20479;-23
2021/06/18 03:56:49;;;;;;;20.25;10.00;;;;;;;18.31;73.40;100155.63;5069115;28;20020;-23
2021/06/18 03:59:16;;;;;;;11.85;7.78;;;;;;;18.45;73.10;100168.38;5071604;28;20027;-23
2021/06/18 04:01:47;;;;;;;13.50;7.75;;;;;;;18.37;73.23;100151.88;5056834;28;20036;-23
2021/06/18 04:04:13;;;;;;;12.77;7.95;;;;;;;18.39;73.54;100153.25;5057514;28;20110;-23
2021/06/18 04:06:39;;;;;;;11.40;7.80;;;;;;;18.64;73.33;100162.44;5091673;28;20107;-23
2021/06/18 04:09:04;;;;;;;13.15;8.23;;;;;;;18.89;72.11;100150.03;5091064;28;20067;-23
2021/06/18 04:11:30;;;;;;;13.88;8.32;;;;;;;18.96;71.88;100150.53;5091272;28;20107;-24
2021/06/18 04:13:56;;;;;;;15.60;9.05;;;;;;;18.70;72.61;100147.84;5072896;28;20430;-23
2021/06/18 04:16:21;;;;;;;14.75;9.32;;;;;;;18.66;73.14;100152.19;5055941;28;20483;-23
2021/06/18 04:18:47;;;;;;;13.98;9.35;;;;;;;18.77;72.88;100145.66;5072709;28;20054;-23
2021/06/18 04:21:15;;;;;;;14.85;8.85;;;;;;;18.72;72.78;100153.00;5056222;28;20103;-23
2021/06/18 04:23:40;;;;;;;14.25;8.63;;;;;;;18.86;72.42;100143.28;5090723;28;20032;-23
2021/06/18 04:26:06;;;;;;;13.07;8.60;;;;;;;18.37;74.77;100150.00;5090757;28;20032;-23
2021/06/18 04:28:32;;;;;;;13.73;8.73;;;;;;;18.52;73.94;100138.38;5090792;28;20034;-24
2021/06/18 04:30:57;;;;;;;13.43;9.10;;;;;;;18.66;74.57;100155.69;5090864;28;20051;-24
2021/06/18 04:33:23;;;;;;;13.68;9.13;;;;;;;18.72;74.64;100151.09;5091138;28;20044;-24
2021/06/18 04:35:48;;;;;;;16.52;8.75;;;;;;;18.82;73.91;100153.81;5090809;28;20119;-24
2021/06/18 04:38:14;;;;;;;15.15;8.93;;;;;;;19.02;73.96;100144.03;5090599;28;20086;-23
2021/06/18 04:40:39;;;;;;;13.25;8.60;;;;;;;19.13;73.25;100151.06;5091036;28;20024;-23
2021/06/18 04:43:05;;;;;;;13.25;8.38;;;;;;;19.25;72.53;100138.06;5090428;28;20111;-23
2021/06/18 04:45:31;;;;;;;11.82;8.40;;;;;;;19.14;74.10;100141.88;5090583;28;20067;-23
2021/06/18 04:47:58;;;;;;;13.70;8.10;;;;;;;19.00;74.09;100143.50;5090479;28;20032;-23
2021/06/18 04:50:23;;;;;;;10.38;7.47;;;;;;;19.05;74.32;100138.91;5090120;28;20111;-23
2021/06/18 04:52:49;;;;;;;12.63;7.22;;;;;;;19.14;73.91;100131.06;5090083;28;20545;-23
2021/06/18 04:55:16;;;;;;;13.13;8.32;;;;;;;19.12;74.39;100135.91;5090360;28;20032;-23
2021/06/18 04:57:45;;;;;;;17.23;9.85;;;;;;;18.83;75.17;100139.22;5090185;28;20036;-23
2021/06/18 05:00:12;;;;;;;13.15;8.02;;;;;;;19.00;75.34;100141.63;5090324;28;20016;-23
2021/06/18 05:02:37;;;;;;;10.40;7.97;;;;;;;18.82;75.30;100139.50;5089788;28;20035;-23
2021/06/18 05:05:03;;;;;;;14.05;8.25;;;;;;;19.30;74.98;100128.31;5090150;28;20028;-24
2021/06/18 05:07:29;;;;;;;10.18;7.88;;;;;;;19.25;74.43;100138.06;5072038;28;20032;-23
2021/06/18 05:09:54;;;;;;;11.50;8.32;;;;;;;19.47;73.67;100139.59;5090092;28;20024;-23
2021/06/18 05:12:20;;;;;;;12.93;8.35;;;;;;;19.43;73.17;100135.81;5089655;28;20416;-23
2021/06/18 05:14:46;;;;;;;11.20;7.88;;;;;;;19.55;73.69;100143.63;5090004;28;20031;-23
2021/06/18 05:17:12;;;;;;;12.23;8.30;;;;;;;19.77;73.40;100137.91;5089690;28;20111;-23
2021/06/18 05:19:37;;;;;;;10.68;7.82;;;;;;;19.84;71.85;100146.53;5071852;28;20107;-23
2021/06/18 05:22:03;;;;;;;13.68;8.20;;;;;;;19.70;71.71;100134.66;5089748;28;20054;-23
2021/06/18 05:24:28;;;;;;;15.45;8.30;;;;;;;19.90;70.87;100142.72;5089766;28;20103;-23
2021/06/18 05:26:54;;;;;;;16.23;11.98;;;;;;;19.84;71.64;100143.81;5089858;28;20105;-23
2021/06/18 05:29:20;;;;;;;10.82;7.57;;;;;;;19.59;70.84;100131.19;5090173;28;20900;-23
2021/06/18 05:31:45;;;;;;;17.45;10.75;;;;;;;19.71;71.13;100153.34;5090287;28;20132;-23
2021/06/18 05:34:11;;;;;;;11.55;7.90;;;;;;;19.61;72.00;100151.44;5089236;28;20024;-23
2021/06/18 05:36:36;;;;;;;14.18;7.63;;;;;;;19.81;71.74;100158.69;5089270;28;20031;-23
2021/06/18 05:39:02;;;;;;;12.23;7.18;;;;;;;19.71;70.57;100153.34;5071068;28;20036;-23
2021/06/18 05:41:28;;;;;;;8.77;6.88;;;;;;;19.56;69.91;100146.06;5089265;28;20035;-23
2021/06/18 05:43:53;;;;;;;10.38;6.72;;;;;;;19.51;70.93;100150.69;5089590;28;20028;-23
2021/06/18 05:46:19;;;;;;;13.68;7.82;;;;;;;19.63;70.85;100149.28;5089084;28;20388;-23
2021/06/18 05:48:44;;;;;;;9.70;6.93;;;;;;;19.70;71.21;100159.81;5089372;28;20062;-23
2021/06/18 05:51:10;;;;;;;10.48;7.65;;;;;;;20.14;70.08;100158.25;5089107;28;20060;-23
2021/06/18 05:53:35;;;;;;;12.23;7.72;;;;;;;20.34;70.91;100163.53;5088954;28;20115;-23
2021/06/18 05:56:01;;;;;;;10.80;6.72;;;;;;;19.95;69.25;100156.19;5088648;28;20040;-24
2021/06/18 05:58:27;;;;;;;17.48;11.30;;;;;;;20.03;70.57;100142.06;5088905;28;20063;-23
2021/06/18 06:00:52;;;;;;;10.55;7.78;;;;;;;20.13;69.52;100148.53;5088650;28;20451;-24
2021/06/18 06:03:18;;;;;;;13.05;7.55;;;;;;;20.38;69.24;100153.75;5088754;28;20471;-24
2021/06/18 06:05:43;;;;;;;14.20;8.18;;;;;;;20.22;69.64;100144.13;5087128;28;20700;-23
2021/06/18 06:08:12;;;;;;;12.10;8.20;;;;;;;20.16;69.29;100146.06;5086141;28;20028;-23
2021/06/18 06:10:38;;;;;;;13.55;7.43;;;;;;;20.02;69.31;100129.66;5087921;28;20040;-24
2021/06/18 06:13:03;;;;;;;12.80;7.80;;;;;;;20.07;69.28;100131.50;5088276;28;20035;-23
2021/06/18 06:15:29;;;;;;;13.45;8.05;;;;;;;20.16;69.75;100139.84;5088786;28;20072;-23
2021/06/18 06:17:54;;;;;;;14.93;7.57;;;;;;;20.21;70.12;100147.94;5094703;28;20071;-23
2021/06/18 06:20:20;;;;;;;13.05;7.97;;;;;;;20.70;69.78;100154.34;5088047;28;20360;-23
2021/06/18 06:22:45;;;;;;;12.60;8.43;;;;;;;20.93;68.72;100131.13;5088047;28;20088;-23
2021/06/18 06:25:11;;;;;;;13.20;7.57;;;;;;;21.13;66.81;100144.47;5087653;28;20032;-23
2021/06/18 06:27:37;;;;;;;16.38;7.65;;;;;;;21.03;68.22;100147.28;5088739;28;20032;-23
2021/06/18 06:30:04;;;;;;;23.08;8.73;;;;;;;20.66;68.67;100124.31;5087999;28;20539;-23
2021/06/18 06:32:29;;;;;;;18.90;10.57;;;;;;;20.81;69.20;100137.72;5088205;28;20040;-24
2021/06/18 06:34:57;;;;;;;15.63;8.30;;;;;;;21.23;67.25;100111.81;5088054;28;20043;-23
2021/06/18 06:37:23;;;;;;;11.35;7.22;;;;;;;21.59;66.14;100133.09;5088048;28;20028;-23
2021/06/18 06:39:48;;;;;;;15.32;7.07;;;;;;;22.00;65.16;100129.03;5088026;28;20031;-23
2021/06/18 06:42:14;;;;;;;16.67;9.43;;;;;;;22.03;65.63;100131.97;5088172;28;20093;-24
2021/06/18 06:44:39;;;;;;;9.75;6.85;;;;;;;22.04;65.29;100128.16;5087428;28;20024;-23
2021/06/18 06:47:05;;;;;;;12.40;6.93;;;;;;;22.38;65.00;100121.72;5087994;28;20039;-23
2021/06/18 06:49:31;;;;;;;10.23;6.78;;;;;;;22.40;63.57;100107.84;5087942;28;20454;-23
2021/06/18 06:51:56;;;;;;;13.50;6.63;;;;;;;22.20;64.86;100111.63;5088171;28;20062;-24
2021/06/18 06:54:25;;;;;;;7.85;5.72;;;;;;;22.22;64.38;100117.59;5087754;28;20460;-23
2021/06/18 06:56:55;;;;;;;8.68;6.40;;;;;;;22.36;64.33;100121.19;5088068;28;20101;-23
2021/06/18 06:59:21;;;;;;;10.48;6.03;;;;;;;22.15;63.28;100112.53;5070113;28;20068;-23
2021/06/18 07:01:46;;;;;;;8.93;6.00;;;;;;;22.03;62.39;100114.88;5087696;28;20079;-24
2021/06/18 07:04:12;;;;;;;8.65;5.25;;;;;;;22.18;63.79;100106.50;5087643;28;20035;-23
2021/06/18 07:06:38;;;;;;;11.07;6.32;;;;;;;22.17;63.92;100104.91;5087843;28;20028;-24
2021/06/18 07:09:07;;;;;;;8.75;5.22;;;;;;;21.97;63.44;100103.28;5087577;28;20032;-23
2021/06/18 07:11:32;;;;;;;12.73;6.03;;;;;;;21.86;64.00;100110.78;5087765;28;20459;-23
2021/06/18 07:13:58;;;;;;;8.10;5.40;;;;;;;21.86;62.39;100109.94;5086235;28;20808;-24
2021/06/18 07:16:24;;;;;;;8.90;5.65;;;;;;;21.83;62.70;100110.56;5087279;28;20894;-23
2021/06/18 07:18:50;;;;;;;8.13;5.22;;;;;;;21.80;63.61;100105.69;5087045;28;20055;-23
2021/06/18 07:21:15;;;;;;;14.02;5.65;;;;;;;21.85;63.27;100102.94;5087194;28;20419;-23
2021/06/18 07:23:41;;;;;;;15.82;6.50;;;;;;;21.89;63.58;100098.53;5087154;28;20046;-23
2021/06/18 07:26:06;;;;;;;9.75;5.47;;;;;;;22.03;62.86;100096.69;5087485;28;20039;-23
2021/06/18 07:28:32;;;;;;;8.27;5.65;;;;;;;22.29;62.28;100100.94;5087213;28;20516;-23
2021/06/18 07:30:58;;;;;;;9.63;6.28;;;;;;;22.71;62.61;100097.25;5086439;28;20040;-23
2021/06/18 07:33:23;;;;;;;9.70;6.05;;;;;;;22.65;62.52;100096.50;5086112;28;20047;-23
2021/06/18 07:35:49;;;;;;;15.43;7.78;;;;;;;22.79;61.80;100085.66;5086007;28;20031;-23
2021/06/18 07:38:14;;;;;;;10.32;6.28;;;;;;;22.80;63.09;100083.75;5085901;28;20040;-23
2021/06/18 07:40:40;;;;;;;8.30;5.47;;;;;;;23.03;60.92;100060.25;5086713;28;20028;-23
2021/06/18 07:43:05;;;;;;;9.80;6.72;;;;;;;22.99;61.10;100079.06;5087690;28;20063;-23
2021/06/18 07:45:31;;;;;;;8.18;5.70;;;;;;;23.09;61.36;100075.34;5086982;28;20116;-24
2021/06/18 07:47:57;;;;;;;9.32;5.55;;;;;;;23.30;62.09;100081.19;5087060;28;20404;-23
2021/06/18 07:50:22;;;;;;;8.30;5.95;;;;;;;23.48;60.54;100074.03;5086945;28;20032;-23
2021/06/18 07:52:48;;;;;;;13.98;7.78;;;;;;;23.47;60.80;100080.56;5087116;28;20095;-22
2021/06/18 07:55:21;;;;;;;13.15;7.53;;;;;;;23.72;59.87;100086.56;5086896;28;20172;-23
2021/06/18 07:57:47;;;;;;;8.75;6.75;;;;;;;23.60;59.71;100074.28;5086928;28;20055;-23
2021/06/18 08:00:12;;;;;;;8.48;5.55;;;;;;;24.19;58.09;100098.03;5068533;28;20036;-23
2021/06/18 08:02:38;;;;;;;6.38;5.20;;;;;;;24.39;56.72;100078.44;5087310;28;20322;-23
2021/06/18 08:05:04;;;;;;;8.52;5.72;;;;;;;24.62;56.81;100094.81;5086367;28;20518;-23
2021/06/18 08:07:30;;;;;;;12.10;6.55;;;;;;;24.24;56.48;100092.47;5069076;28;20024;-23
2021/06/18 08:09:56;;;;;;;7.50;5.75;;;;;;;24.15;57.13;100094.31;5086840;28;20031;-23
2021/06/18 08:12:21;;;;;;;9.75;5.90;;;;;;;24.31;57.77;100087.38;5086477;28;20122;-23
2021/06/18 08:14:48;;;;;;;8.20;5.15;;;;;;;24.22;55.29;100090.06;5085839;28;20036;-23
2021/06/18 08:17:13;;;;;;;7.70;4.20;;;;;;;24.16;53.21;100082.31;5085201;28;20028;-23
2021/06/18 08:19:39;;;;;;;8.77;4.25;;;;;;;24.14;53.65;100084.53;5086452;28;20027;-23
2021/06/18 08:22:05;;;;;;;5.95;4.10;;;;;;;24.17;56.04;100076.56;5085172;28;20052;-23
2021/06/18 08:24:32;;;;;;;6.32;4.30;;;;;;;24.57;54.94;100093.03;5085415;28;20035;-23
2021/06/18 08:26:57;;;;;;;6.27;4.03;;;;;;;24.63;53.36;100074.63;5085631;28;20032;-23
2021/06/18 08:29:23;;;;;;;9.13;4.28;;;;;;;25.01;53.46;100071.44;5086674;28;20039;-23
2021/06/18 08:31:49;;;;;;;6.80;4.03;;;;;;;25.64;51.97;100078.34;5068529;28;20055;-23
2021/06/18 08:34:14;;;;;;;8.68;4.82;;;;;;;25.54;51.58;100070.47;5086301;28;20489;-23
2021/06/18 08:36:40;;;;;;;6.65;4.22;;;;;;;25.37;52.54;100073.16;5086708;28;20035;-23
2021/06/18 08:39:06;;;;;;;5.90;4.03;;;;;;;25.54;50.64;100056.00;5086254;28;20038;-23
2021/06/18 08:41:31;;;;;;;7.43;3.95;;;;;;;25.44;52.33;100073.50;5086195;28;20032;-23
2021/06/18 08:43:57;;;;;;;7.55;4.00;;;;;;;25.39;52.59;100062.72;5087219;28;20047;-23
2021/06/18 08:46:23;;;;;;;10.68;5.30;;;;;;;25.92;50.83;100071.81;5072438;28;20054;-23
2021/06/18 08:48:48;;;;;;;8.00;4.80;;;;;;;25.83;53.28;100063.59;5088941;28;20082;-23
2021/06/18 08:51:14;;;;;;;6.43;4.05;;;;;;;25.68;51.86;100062.09;5088733;28;20022;-23
2021/06/18 08:53:40;;;;;;;9.00;4.90;;;;;;;26.02;52.42;100068.75;5089976;28;20054;-23
2021/06/18 08:56:06;;;;;;;9.00;4.20;;;;;;;25.90;50.60;100050.25;5055056;28;20051;-23
2021/06/18 08:58:31;;;;;;;7.80;3.97;;;;;;;25.90;51.13;100066.66;5088279;28;20031;-23
2021/06/18 09:00:57;;;;;;;6.22;4.15;;;;;;;26.34;50.25;100067.41;5089752;28;20024;-23
2021/06/18 09:03:45;;;;;;;6.93;4.05;;;;;;;26.48;48.50;100071.88;5090005;28;20115;-23
2021/06/18 09:06:27;;;;;;;7.50;4.40;;;;;;;26.01;51.23;100054.28;5088174;28;20470;-23
2021/06/18 09:09:11;;;;;;;10.90;4.13;;;;;;;25.84;50.67;100070.63;5087872;28;20028;-23
2021/06/18 09:11:38;;;;;;;7.57;4.30;;;;;;;25.62;52.13;100047.84;5087929;28;20028;-23
2021/06/18 09:14:26;;;;;;;7.60;4.35;;;;;;;25.89;50.97;100051.38;5087497;28;20031;-23
2021/06/18 09:17:17;;;;;;;5.30;3.60;;;;;;;26.17;49.95;100070.16;5087486;28;20507;-23
2021/06/18 09:19:52;;;;;;;45.60;7.43;;;;;;;26.04;50.20;100074.69;5087569;28;20042;-23
2021/06/18 09:22:34;;;;;;;7.43;3.30;;;;;;;26.12;50.55;100073.09;5089133;28;20072;-22
2021/06/18 09:25:13;;;;;;;5.35;4.25;;;;;;;26.03;49.36;100071.16;5089581;28;20027;-23
2021/06/18 09:27:44;;;;;;;7.43;5.13;;;;;;;25.86;51.18;100065.66;5089292;28;20028;-23
2021/06/18 09:30:32;;;;;;;5.93;3.60;;;;;;;25.46;51.73;100074.00;5089177;28;20541;-23
2021/06/18 09:33:16;;;;;;;4.90;3.42;;;;;;;25.39;54.09;100054.53;5089565;28;20063;-23
2021/06/18 09:36:04;;;;;;;6.85;3.85;;;;;;;25.19;53.48;100056.72;5089470;28;20027;-22
2021/06/18 09:38:39;;;;;;;6.97;3.42;;;;;;;25.43;53.42;100050.84;5090035;28;20044;-22
2021/06/18 09:41:05;;;;;;;6.45;3.75;;;;;;;25.31;54.29;100055.31;5089390;28;20071;-23
2021/06/18 09:43:42;;;;;;;5.88;3.53;;;;;;;25.29;55.17;100049.38;5089574;28;20059;-23
2021/06/18 09:46:08;;;;;;;11.65;5.90;;;;;;;25.23;55.29;100052.28;5088114;28;20027;-23
2021/06/18 09:48:34;;;;;;;7.30;4.82;;;;;;;25.13;55.55;100038.06;5087891;28;20040;-23
2021/06/18 09:51:00;;;;;;;6.80;4.20;;;;;;;25.16;55.36;100032.00;5088933;28;20070;-22
2021/06/18 09:53:27;;;;;;;11.52;9.00;;;;;;;25.41;55.22;100052.28;5088840;28;20450;-23
2021/06/18 09:56:04;;;;;;;15.18;9.70;;;;;;;25.32;54.66;100046.03;5086898;28;20032;-23
2021/06/18 09:58:52;;;;;;;6.72;3.83;;;;;;;24.83;56.18;100038.63;5087865;28;20108;-23
2021/06/18 10:01:24;;;;;;;10.30;4.63;;;;;;;24.73;58.23;100038.09;5089170;28;20863;-23
2021/06/18 10:04:10;;;;;;;7.40;4.93;;;;;;;24.72;56.18;100040.00;5088599;28;20123;-23
2021/06/18 10:06:36;;;;;;;7.45;3.72;;;;;;;24.15;57.12;100028.94;5088804;28;20063;-23
2021/06/18 10:09:04;;;;;;;7.20;5.05;;;;;;;23.99;58.97;100015.69;5088490;28;20180;-23
2021/06/18 10:11:30;;;;;;;5.10;3.60;;;;;;;24.09;57.60;100024.72;5088734;28;20023;-23
2021/06/18 10:13:55;;;;;;;6.25;3.67;;;;;;;24.31;57.36;100021.97;5070729;28;20385;-24
2021/06/18 10:16:22;;;;;;;5.78;3.60;;;;;;;24.56;57.14;100014.28;5088482;28;20060;-23
2021/06/18 10:18:48;;;;;;;7.03;4.10;;;;;;;24.47;57.96;99987.75;5070921;28;20890;-23
2021/06/18 10:21:17;;;;;;;8.05;3.75;;;;;;;24.51;57.70;100007.03;5088767;28;20027;-23
2021/06/18 10:23:43;;;;;;;5.80;3.75;;;;;;;24.57;57.53;100003.06;5070798;28;20511;-23
2021/06/18 10:26:09;;;;;;;6.93;4.05;;;;;;;24.85;56.99;99991.94;5054066;28;20028;-23
2021/06/18 10:28:35;;;;;;;5.70;3.83;;;;;;;24.93;57.86;99999.34;5088728;28;20039;-23
2021/06/18 10:31:02;;;;;;;8.15;3.90;;;;;;;25.18;55.77;99983.34;5088688;28;20848;-23
2021/06/18 10:33:28;;;;;;;6.10;3.95;;;;;;;25.45;56.04;99998.66;5088722;28;20089;-23
2021/06/18 10:38:41;;;;;;;6.95;3.92;;;;;;;25.40;56.97;99985.19;5088049;28;20036;-23
2021/06/18 10:41:13;;;;;;;5.13;3.72;;;;;;;25.29;55.23;99983.88;5087332;28;20086;-23
2021/06/18 10:43:42;;;;;;;7.90;4.40;;;;;;;25.35;54.46;99979.88;5087672;28;20028;-23
2021/06/18 10:46:08;;;;;;;6.90;5.20;;;;;;;25.33;55.41;99973.91;5087848;28;20031;-23
2021/06/18 10:48:47;;;;;;;8.20;4.05;;;;;;;25.65;55.61;99976.16;5087853;28;20028;-23
2021/06/18 10:54:16;;;;;;;6.45;3.97;;;;;;;25.35;55.53;99958.03;5087722;28;20036;-23
2021/06/18 10:57:25;;;;;;;8.75;4.20;;;;;;;25.15;55.66;99957.50;5086753;28;20500;-23
2021/06/18 10:59:52;;;;;;;8.60;4.00;;;;;;;25.34;56.78;99961.91;5087802;28;20034;-23
2021/06/18 11:02:27;;;;;;;8.43;4.03;;;;;;;25.33;56.12;99963.00;5087281;28;20025;-23
2021/06/18 11:04:55;;;;;;;6.03;3.60;;;;;;;25.52;53.50;99965.41;5087846;28;20035;-23
2021/06/18 11:07:27;;;;;;;6.10;4.40;;;;;;;25.62;53.21;99949.53;5087598;28;20043;-23
2021/06/18 11:09:59;;;;;;;6.10;3.60;;;;;;;25.77;53.40;99955.63;5087943;28;20032;-22
2021/06/18 11:12:24;;;;;;;5.30;3.70;;;;;;;25.83;52.14;99965.25;5087609;28;20513;-23
2021/06/18 11:14:51;;;;;;;6.10;4.22;;;;;;;25.90;51.20;99962.03;5087279;28;20111;-23
2021/06/18 11:17:54;;;;;;;5.70;3.90;;;;;;;26.02;52.27;99960.25;5069172;28;20075;-23
2021/06/18 11:20:23;;;;;;;15.70;9.30;;;;;;;25.52;53.11;99941.66;5086884;28;20032;-23
2021/06/18 11:22:55;;;;;;;10.02;6.53;;;;;;;25.40;54.04;99946.97;5087766;28;20127;-23
2021/06/18 11:25:36;;;;;;;14.88;10.52;;;;;;;25.37;53.09;99963.97;5087990;28;20089;-23
2021/06/18 11:28:23;;;;;;;10.52;7.43;;;;;;;25.35;54.33;99960.75;5087221;28;20107;-23
2021/06/18 11:31:01;;;;;;;12.80;9.75;;;;;;;25.29;53.90;99945.66;5087299;28;20035;-23